createdAt,value
2022-12-11T00:00:38.016Z,53.88
2022-12-11T00:03:04.507Z,60.43
2022-12-11T00:05:30.920Z,62.67
2022-12-11T00:07:58.028Z,64.60
2022-12-11T00:10:24.908Z,65.03
2022-12-11T00:12:51.341Z,66.45
2022-12-11T00:15:17.894Z,57.63
2022-12-11T00:17:44.374Z,63.15
2022-12-11T00:20:11.320Z,57.65
2022-12-11T00:22:37.791Z,57.95
2022-12-11T00:25:04.651Z,55.88
2022-12-11T00:27:31.038Z,62.80
2022-12-11T00:29:57.421Z,56.55
2022-12-11T00:32:23.832Z,55.30
2022-12-11T00:34:50.228Z,61.03
2022-12-11T00:37:17.387Z,61.55
2022-12-11T00:39:43.945Z,59.03
2022-12-11T00:42:10.386Z,56.17
2022-12-11T00:44:36.839Z,52.17
2022-12-11T00:47:03.799Z,52.83
2022-12-11T00:49:30.201Z,46.92
2022-12-11T00:51:56.635Z,43.73
2022-12-11T00:54:23.149Z,45.42
2022-12-11T00:56:49.605Z,44.80
2022-12-11T00:59:16.011Z,44.90
2022-12-11T01:01:42.612Z,55.17
2022-12-11T01:04:09.135Z,49.10
2022-12-11T01:06:35.546Z,44.55
2022-12-11T01:09:20.378Z,47.78
2022-12-11T01:11:46.770Z,46.53
2022-12-11T01:14:14.232Z,50.67
2022-12-11T01:16:40.726Z,45.37
2022-12-11T01:19:07.193Z,46.88
2022-12-11T01:21:33.591Z,47.47
2022-12-11T01:24:00.080Z,51.25
2022-12-11T01:26:26.719Z,46.33
2022-12-11T01:28:53.222Z,42.30
2022-12-11T01:31:21.014Z,46.88
2022-12-11T01:33:47.535Z,47.97
2022-12-11T01:36:16.568Z,52.63
2022-12-11T01:38:43.082Z,45.50
2022-12-11T01:41:10.507Z,46.23
2022-12-11T01:44:15.333Z,44.33
2022-12-11T01:46:42.867Z,35.78
2022-12-11T01:49:12.941Z,40.50
2022-12-11T01:51:49.050Z,43.15
2022-12-11T01:54:19.011Z,42.57
2022-12-11T01:56:46.702Z,47.10
2022-12-11T01:59:17.786Z,43.28
2022-12-11T02:01:59.427Z,39.92
2022-12-11T02:04:26.458Z,42.53
2022-12-11T02:06:53.369Z,38.07
2022-12-11T02:09:26.807Z,40.33
2022-12-11T02:12:20.609Z,41.95
2022-12-11T02:15:13.334Z,46.35
2022-12-11T02:18:01.938Z,43.13
2022-12-11T02:20:31.391Z,53.37
2022-12-11T02:23:07.298Z,44.22
2022-12-11T02:26:15.959Z,41.63
2022-12-11T02:28:47.092Z,48.15
2022-12-11T02:31:19.447Z,46.63
2022-12-11T02:33:49.712Z,45.47
2022-12-11T02:36:18.914Z,43.22
2022-12-11T02:38:50.694Z,42.95
2022-12-11T02:41:19.459Z,45.47
2022-12-11T02:43:47.988Z,47.17
2022-12-11T02:46:18.279Z,52.57
2022-12-11T02:48:47.190Z,49.00
2022-12-11T02:51:15.499Z,43.00
2022-12-11T02:53:44.204Z,46.78
2022-12-11T02:56:16.243Z,50.97
2022-12-11T02:58:47.704Z,40.33
2022-12-11T03:01:14.393Z,41.47
2022-12-11T03:03:40.935Z,50.42
2022-12-11T03:06:11.763Z,44.83
2022-12-11T03:08:39.354Z,46.42
2022-12-11T03:11:05.759Z,50.30
2022-12-11T03:13:32.662Z,43.85
2022-12-11T03:16:17.155Z,48.40
2022-12-11T03:18:55.529Z,44.17
2022-12-11T03:21:27.051Z,45.63
2022-12-11T03:24:10.168Z,41.77
2022-12-11T03:26:42.870Z,46.05
2022-12-11T03:29:38.008Z,45.17
2022-12-11T03:32:12.880Z,44.97
2022-12-11T03:34:55.655Z,49.60
2022-12-11T03:37:26.356Z,44.93
2022-12-11T03:39:58.894Z,48.30
2022-12-11T03:42:27.048Z,48.92
2022-12-11T03:44:55.426Z,44.40
2022-12-11T03:47:26.543Z,48.17
2022-12-11T03:49:55.815Z,46.67
2022-12-11T03:52:23.419Z,46.00
2022-12-11T03:54:50.858Z,44.42
2022-12-11T03:57:22.427Z,48.15
2022-12-11T03:59:49.862Z,51.35
2022-12-11T04:02:16.282Z,45.60
2022-12-11T04:04:42.920Z,50.67
2022-12-11T04:07:09.466Z,50.38
2022-12-11T04:09:36.528Z,45.40
2022-12-11T04:12:03.149Z,49.85
2022-12-11T04:14:47.957Z,42.33
2022-12-11T04:17:34.317Z,41.53
2022-12-11T04:20:19.018Z,42.95
2022-12-11T04:23:03.709Z,46.28
2022-12-11T04:25:30.103Z,45.30
2022-12-11T04:27:56.490Z,48.37
2022-12-11T04:30:29.296Z,52.55
2022-12-11T04:32:58.970Z,42.15
2022-12-11T04:35:25.404Z,48.28
2022-12-11T04:37:52.903Z,42.13
2022-12-11T04:40:20.350Z,55.53
2022-12-11T04:42:46.780Z,48.67
2022-12-11T04:45:13.497Z,53.67
2022-12-11T04:47:40.948Z,48.22
2022-12-11T04:50:09.397Z,56.63
2022-12-11T04:52:36.903Z,45.00
2022-12-11T04:55:05.416Z,47.90
2022-12-11T04:57:31.861Z,49.40
2022-12-11T04:59:58.321Z,47.28
2022-12-11T05:02:24.839Z,48.92
2022-12-11T05:04:51.276Z,54.90
2022-12-11T05:07:17.828Z,53.05
2022-12-11T05:09:44.260Z,48.88
2022-12-11T05:12:10.660Z,55.60
2022-12-11T05:14:37.120Z,56.00
2022-12-11T05:17:03.578Z,55.77
2022-12-11T05:19:30.038Z,52.13
2022-12-11T05:21:56.487Z,65.47
2022-12-11T05:24:22.945Z,53.70
2022-12-11T05:26:49.327Z,50.60
2022-12-11T05:29:15.714Z,52.67
2022-12-11T05:31:42.200Z,53.38
2022-12-11T05:34:08.708Z,54.63
2022-12-11T05:36:35.420Z,55.85
2022-12-11T05:39:02.455Z,49.92
2022-12-11T05:41:32.732Z,52.87
2022-12-11T05:43:59.638Z,54.85
2022-12-11T05:46:28.515Z,55.47
2022-12-11T05:48:58.291Z,55.65
2022-12-11T05:51:25.197Z,57.78
2022-12-11T05:53:52.824Z,61.47
2022-12-11T05:56:31.102Z,56.55
2022-12-11T05:58:59.153Z,46.25
2022-12-11T06:01:35.214Z,56.00
2022-12-11T06:04:03.429Z,50.22
2022-12-11T06:06:30.275Z,43.13
2022-12-11T06:08:58.805Z,53.17
2022-12-11T06:11:28.234Z,53.40
2022-12-11T06:13:55.480Z,50.53
2022-12-11T06:16:22.328Z,53.33
2022-12-11T06:18:49.072Z,50.17
2022-12-11T06:21:18.688Z,44.88
2022-12-11T06:23:46.852Z,43.70
2022-12-11T06:26:15.296Z,42.15
2022-12-11T06:28:41.738Z,50.67
2022-12-11T06:31:08.542Z,42.77
2022-12-11T06:33:35.584Z,47.25
2022-12-11T06:36:04.442Z,40.47
2022-12-11T06:38:31.057Z,46.10
2022-12-11T06:40:59.527Z,47.05
2022-12-11T06:43:26.111Z,40.97
2022-12-11T06:45:52.953Z,44.53
2022-12-11T06:48:20.636Z,47.00
2022-12-11T06:50:47.079Z,42.28
2022-12-11T06:53:14.925Z,39.90
2022-12-11T06:55:41.765Z,41.73
2022-12-11T06:58:08.918Z,38.72
2022-12-11T07:00:36.695Z,39.50
2022-12-11T07:03:04.006Z,45.95
2022-12-11T07:05:31.871Z,43.35
2022-12-11T07:07:58.542Z,41.57
2022-12-11T07:10:25.099Z,40.90
2022-12-11T07:12:54.566Z,40.80
2022-12-11T07:15:21.139Z,40.40
2022-12-11T07:17:47.572Z,41.00
2022-12-11T07:20:14.014Z,40.53
2022-12-11T07:22:46.031Z,37.05
2022-12-11T07:25:13.295Z,49.03
2022-12-11T07:27:39.957Z,43.67
2022-12-11T07:30:06.927Z,40.20
2022-12-11T07:32:33.507Z,41.03
2022-12-11T07:34:59.964Z,47.90
2022-12-11T07:37:26.366Z,45.65
2022-12-11T07:39:52.895Z,43.38
2022-12-11T07:42:19.288Z,45.33
2022-12-11T07:44:45.708Z,43.70
2022-12-11T07:47:12.109Z,40.75
2022-12-11T07:49:38.497Z,46.42
2022-12-11T07:52:04.984Z,44.78
2022-12-11T07:54:31.458Z,43.97
2022-12-11T07:56:57.875Z,46.20
2022-12-11T07:59:24.273Z,48.03
2022-12-11T08:01:50.684Z,43.58
2022-12-11T08:04:17.064Z,45.90
2022-12-11T08:06:43.801Z,42.30
2022-12-11T08:09:19.092Z,45.10
2022-12-11T08:11:51.398Z,46.97
2022-12-11T08:14:18.475Z,46.83
2022-12-11T08:16:45.026Z,41.00
2022-12-11T08:19:12.644Z,46.22
2022-12-11T08:21:40.164Z,44.77
2022-12-11T08:24:07.091Z,44.10
2022-12-11T08:26:33.501Z,47.72
2022-12-11T08:29:01.148Z,49.55
2022-12-11T08:31:28.233Z,47.03
2022-12-11T08:33:56.008Z,49.77
2022-12-11T08:36:23.517Z,47.65
2022-12-11T08:38:51.205Z,54.22
2022-12-11T08:41:29.372Z,47.33
2022-12-11T08:43:57.598Z,50.22
2022-12-11T08:46:26.735Z,54.47
2022-12-11T08:48:54.613Z,45.78
2022-12-11T08:51:23.736Z,47.42
2022-12-11T08:53:51.214Z,56.35
2022-12-11T08:56:20.118Z,51.45
2022-12-11T08:58:48.239Z,53.80
2022-12-11T09:01:18.143Z,43.08
2022-12-11T09:03:44.762Z,50.38
2022-12-11T09:06:14.851Z,52.85
2022-12-11T09:08:44.843Z,57.80
2022-12-11T09:11:19.692Z,56.17
2022-12-11T09:13:46.583Z,56.15
2022-12-11T09:16:16.107Z,53.58
2022-12-11T09:18:42.973Z,63.30
2022-12-11T09:21:13.530Z,57.35
2022-12-11T09:23:40.396Z,64.53
2022-12-11T09:26:12.626Z,59.85
2022-12-11T09:28:44.414Z,59.42
2022-12-11T09:31:17.892Z,53.33
2022-12-11T09:33:45.435Z,66.40
2022-12-11T09:36:12.596Z,66.10
2022-12-11T09:38:39.163Z,54.20
2022-12-11T09:41:17.583Z,52.88
2022-12-11T09:43:49.940Z,59.28
2022-12-11T09:46:17.443Z,56.65
2022-12-11T09:48:47.479Z,63.03
2022-12-11T09:51:26.175Z,56.03
2022-12-11T09:53:56.690Z,62.45
2022-12-11T09:56:31.704Z,58.17
2022-12-11T09:59:19.800Z,59.63
2022-12-11T10:01:57.754Z,55.17
2022-12-11T10:04:38.186Z,55.78
2022-12-11T10:07:39.873Z,66.97
2022-12-11T10:10:21.114Z,47.38
2022-12-11T10:13:06.709Z,48.20
2022-12-11T10:15:59.827Z,46.77
2022-12-11T10:18:29.070Z,54.95
2022-12-11T10:20:56.705Z,47.25
2022-12-11T10:23:35.523Z,51.45
2022-12-11T10:26:15.455Z,54.42
2022-12-11T10:28:42.046Z,55.43
2022-12-11T10:31:32.164Z,53.17
2022-12-11T10:34:03.809Z,49.03
2022-12-11T10:36:34.178Z,50.15
2022-12-11T10:39:01.591Z,50.38
2022-12-11T10:41:38.602Z,49.50
2022-12-11T10:44:17.453Z,49.92
2022-12-11T10:46:45.285Z,43.88
2022-12-11T10:49:32.180Z,47.53
2022-12-11T10:52:02.428Z,46.95
2022-12-11T10:54:43.464Z,41.73
2022-12-11T10:57:13.729Z,47.60
2022-12-11T10:59:42.851Z,47.83
2022-12-11T11:02:32.419Z,49.97
2022-12-11T11:05:01.104Z,44.42
2022-12-11T11:07:30.330Z,45.43
2022-12-11T11:10:11.999Z,51.47
2022-12-11T11:12:45.339Z,46.63
2022-12-11T11:15:29.368Z,51.13
2022-12-11T11:18:04.286Z,55.72
2022-12-11T11:20:34.128Z,51.90
2022-12-11T11:23:02.671Z,49.92
2022-12-11T11:25:32.747Z,48.47
2022-12-11T11:28:15.020Z,45.65
2022-12-11T11:30:42.473Z,52.30
2022-12-11T11:33:17.560Z,51.27
2022-12-11T11:35:54.305Z,49.28
2022-12-11T11:38:29.640Z,51.78
2022-12-11T11:41:05.642Z,50.50
2022-12-11T11:43:42.577Z,49.03
2022-12-11T11:46:17.753Z,51.83
2022-12-11T11:48:59.199Z,47.38
2022-12-11T11:51:36.020Z,53.47
2022-12-11T11:54:11.584Z,56.05
2022-12-11T11:56:38.746Z,54.83
2022-12-11T11:59:23.991Z,46.47
2022-12-11T12:01:53.976Z,55.00
2022-12-11T12:04:20.428Z,57.35
2022-12-11T12:07:01.990Z,52.92
2022-12-11T12:10:00.537Z,53.08
2022-12-11T12:12:57.502Z,49.73
2022-12-11T12:15:35.514Z,53.05
2022-12-11T12:18:15.653Z,48.70
2022-12-11T12:20:47.240Z,53.45
2022-12-11T12:23:48.809Z,52.55
2022-12-11T12:26:39.084Z,54.90
2022-12-11T12:29:17.643Z,55.70
2022-12-11T12:32:08.295Z,53.20
2022-12-11T12:34:43.674Z,53.92
2022-12-11T12:37:38.085Z,48.55
2022-12-11T12:40:29.440Z,53.80
2022-12-11T12:43:05.617Z,55.50
2022-12-11T12:46:23.103Z,54.92
2022-12-11T12:48:51.600Z,51.08
2022-12-11T12:51:18.522Z,51.17
2022-12-11T12:53:55.624Z,51.23
2022-12-11T12:56:23.831Z,54.78
2022-12-11T12:58:50.272Z,54.88
2022-12-11T13:01:20.863Z,55.75
2022-12-11T13:03:53.951Z,50.33
2022-12-11T13:06:42.265Z,55.50
2022-12-11T13:09:17.802Z,48.50
2022-12-11T13:11:46.009Z,50.72
2022-12-11T13:14:15.495Z,54.72
2022-12-11T13:16:44.317Z,51.95
2022-12-11T13:19:22.618Z,54.77
2022-12-11T13:22:10.828Z,51.95
2022-12-11T13:25:02.328Z,52.85
2022-12-11T13:27:34.617Z,48.15
2022-12-11T13:30:28.591Z,53.58
2022-12-11T13:33:05.812Z,52.97
2022-12-11T13:35:34.171Z,49.80
2022-12-11T13:38:21.080Z,45.80
2022-12-11T13:40:54.494Z,50.80
2022-12-11T13:43:28.023Z,48.85
2022-12-11T13:46:09.363Z,51.47
2022-12-11T13:48:40.635Z,53.95
2022-12-11T13:51:07.596Z,53.95
2022-12-11T13:53:34.029Z,52.85
2022-12-11T13:56:06.296Z,48.47
2022-12-11T13:58:38.887Z,51.63
2022-12-11T14:01:24.965Z,57.00
2022-12-11T14:03:55.743Z,48.58
2022-12-11T14:06:23.691Z,45.72
2022-12-11T14:08:53.434Z,50.40
2022-12-11T14:11:30.263Z,53.23
2022-12-11T14:14:03.402Z,50.88
2022-12-11T14:16:30.558Z,49.80
2022-12-11T14:19:05.298Z,48.70
2022-12-11T14:21:31.796Z,50.83
2022-12-11T14:24:00.887Z,47.57
2022-12-11T14:26:32.304Z,47.55
2022-12-11T14:28:58.726Z,51.25
2022-12-11T14:31:30.251Z,54.13
2022-12-11T14:34:11.809Z,51.22
2022-12-11T14:36:41.344Z,53.23
2022-12-11T14:39:16.619Z,55.67
2022-12-11T14:41:50.472Z,56.67
2022-12-11T14:44:19.896Z,53.58
2022-12-11T14:46:50.220Z,54.67
2022-12-11T14:49:36.674Z,51.13
2022-12-11T14:52:04.470Z,55.85
2022-12-11T14:54:43.172Z,53.78
2022-12-11T14:57:20.021Z,50.90
2022-12-11T14:59:49.102Z,53.08
2022-12-11T15:02:32.429Z,48.37
2022-12-11T15:05:18.008Z,52.20
2022-12-11T15:08:10.318Z,55.08
2022-12-11T15:10:42.412Z,55.03
2022-12-11T15:13:09.942Z,60.90
2022-12-11T15:15:45.511Z,50.20
2022-12-11T15:18:32.761Z,54.60
2022-12-11T15:21:09.498Z,52.35
2022-12-11T15:23:51.903Z,55.50
2022-12-11T15:26:19.862Z,51.63
2022-12-11T15:28:46.972Z,55.93
2022-12-11T15:31:26.965Z,58.63
2022-12-11T15:33:54.033Z,64.05
2022-12-11T15:36:40.718Z,57.83
2022-12-11T15:39:09.361Z,56.05
2022-12-11T15:41:36.515Z,61.33
2022-12-11T15:44:04.181Z,54.70
2022-12-11T15:46:35.627Z,57.83
2022-12-11T15:49:02.086Z,57.65
2022-12-11T15:51:29.122Z,51.47
2022-12-11T15:53:55.516Z,61.17
2022-12-11T15:56:21.961Z,56.83
2022-12-11T15:58:49.371Z,56.55
2022-12-11T16:01:15.843Z,60.25
2022-12-11T16:03:42.266Z,53.55
2022-12-11T16:06:13.328Z,55.10
2022-12-11T16:08:39.714Z,59.35
2022-12-11T16:11:06.123Z,51.95
2022-12-11T16:13:32.550Z,53.97
2022-12-11T16:15:59.047Z,52.60
2022-12-11T16:18:26.448Z,53.93
2022-12-11T16:20:53.871Z,55.13
2022-12-11T16:23:20.947Z,51.42
2022-12-11T16:25:47.852Z,58.25
2022-12-11T16:28:16.499Z,60.28
2022-12-11T16:30:43.563Z,52.97
2022-12-11T16:33:13.137Z,52.47
2022-12-11T16:35:40.687Z,55.40
2022-12-11T16:38:07.768Z,53.33
2022-12-11T16:40:34.219Z,52.25
2022-12-11T16:43:00.655Z,54.10
2022-12-11T16:45:27.136Z,56.25
2022-12-11T16:47:53.803Z,56.20
2022-12-11T16:50:20.289Z,54.65
2022-12-11T16:52:47.175Z,53.78
2022-12-11T16:55:14.759Z,51.83
2022-12-11T16:57:41.952Z,63.60
2022-12-11T17:00:12.043Z,55.13
2022-12-11T17:02:38.628Z,57.60
2022-12-11T17:05:05.432Z,57.10
2022-12-11T17:07:32.779Z,57.93
2022-12-11T17:10:00.776Z,60.20
2022-12-11T17:12:28.002Z,57.58
2022-12-11T17:14:55.944Z,57.17
2022-12-11T17:17:22.415Z,63.22
2022-12-11T17:19:49.166Z,54.77
2022-12-11T17:22:15.652Z,57.00
2022-12-11T17:24:42.059Z,58.72
2022-12-11T17:27:08.485Z,64.18
2022-12-11T17:29:34.920Z,63.22
2022-12-11T17:32:03.180Z,71.40
2022-12-11T17:34:34.633Z,65.68
2022-12-11T17:37:04.218Z,61.10
2022-12-11T17:39:30.802Z,60.53
2022-12-11T17:41:57.297Z,70.75
2022-12-11T17:44:24.258Z,67.70
2022-12-11T17:46:50.738Z,62.72
2022-12-11T17:49:17.164Z,68.70
2022-12-11T17:51:43.633Z,70.40
2022-12-11T17:54:10.071Z,66.07
2022-12-11T17:56:36.834Z,62.07
2022-12-11T17:59:03.694Z,66.82
2022-12-11T18:01:30.272Z,62.97
2022-12-11T18:03:56.865Z,66.95
2022-12-11T18:06:23.365Z,59.88
2022-12-11T18:08:49.772Z,62.63
2022-12-11T18:11:18.809Z,65.65
2022-12-11T18:13:46.255Z,64.90
2022-12-11T18:16:19.275Z,64.45
2022-12-11T18:18:47.066Z,60.50
2022-12-11T18:21:18.615Z,66.13
2022-12-11T18:23:45.186Z,62.35
2022-12-11T18:26:14.408Z,65.65
2022-12-11T18:28:41.736Z,67.75
2022-12-11T18:31:09.718Z,57.75
2022-12-11T18:33:38.213Z,66.13
2022-12-11T18:36:05.626Z,59.00
2022-12-11T18:38:32.091Z,61.67
2022-12-11T18:40:58.472Z,62.47
2022-12-11T18:43:24.872Z,60.50
2022-12-11T18:45:51.888Z,55.30
2022-12-11T18:48:18.303Z,56.70
2022-12-11T18:50:49.569Z,51.63
2022-12-11T18:53:18.026Z,61.78
2022-12-11T18:55:47.232Z,53.25
2022-12-11T18:58:15.711Z,58.23
2022-12-11T19:00:42.988Z,57.17
2022-12-11T19:03:10.826Z,60.97
2022-12-11T19:05:40.284Z,63.65
2022-12-11T19:08:06.834Z,66.07
2022-12-11T19:10:33.286Z,58.43
2022-12-11T19:12:59.857Z,53.47
2022-12-11T19:15:27.605Z,54.38
2022-12-11T19:17:54.017Z,60.92
2022-12-11T19:23:07.599Z,55.37
2022-12-11T19:25:34.007Z,61.35
2022-12-11T19:28:01.068Z,64.75
2022-12-11T19:30:27.576Z,60.00
2022-12-11T19:32:54.013Z,55.42
2022-12-11T19:35:20.652Z,57.07
2022-12-11T19:37:47.149Z,55.42
2022-12-11T19:40:14.477Z,61.45
2022-12-11T19:42:41.179Z,62.97
2022-12-11T19:45:07.747Z,57.28
2022-12-11T19:47:34.910Z,52.80
2022-12-11T19:50:01.549Z,55.58
2022-12-11T19:52:28.031Z,54.13
2022-12-11T19:54:54.470Z,67.28
2022-12-11T19:57:20.856Z,57.28
2022-12-11T19:59:49.377Z,59.17
2022-12-11T20:02:19.432Z,57.88
2022-12-11T20:04:45.849Z,52.63
2022-12-11T20:07:12.299Z,61.25
2022-12-11T20:09:38.739Z,55.55
2022-12-11T20:12:10.147Z,62.57
2022-12-11T20:14:37.685Z,57.13
2022-12-11T20:17:14.304Z,63.53
2022-12-11T20:19:41.474Z,54.28
2022-12-11T20:22:09.058Z,53.38
2022-12-11T20:24:35.904Z,55.50
2022-12-11T20:27:02.364Z,52.03
2022-12-11T20:29:28.865Z,61.25
2022-12-11T20:31:55.333Z,56.92
2022-12-11T20:34:21.816Z,57.85
2022-12-11T20:36:48.650Z,57.20
2022-12-11T20:39:15.633Z,60.30
2022-12-11T20:41:42.140Z,60.38
2022-12-11T20:44:08.599Z,59.42
2022-12-11T20:46:35.066Z,60.83
2022-12-11T20:49:01.687Z,57.40
2022-12-11T20:51:29.025Z,57.38
2022-12-11T20:53:59.633Z,53.80
2022-12-11T20:56:29.257Z,59.17
2022-12-11T20:58:56.439Z,57.40
2022-12-11T21:01:24.556Z,56.13
2022-12-11T21:03:52.962Z,61.85
2022-12-11T21:06:26.404Z,57.53
2022-12-11T21:08:53.408Z,62.78
2022-12-11T21:11:20.102Z,63.92
2022-12-11T21:13:46.609Z,58.73
2022-12-11T21:16:13.244Z,53.25
2022-12-11T21:18:40.120Z,61.28
2022-12-11T21:21:06.957Z,60.60
2022-12-11T21:23:33.976Z,55.85
2022-12-11T21:26:00.565Z,56.70
2022-12-11T21:28:30.633Z,61.65
2022-12-11T21:31:13.202Z,54.08
2022-12-11T21:33:39.680Z,56.72
2022-12-11T21:36:07.255Z,58.08
2022-12-11T21:38:33.654Z,55.10
2022-12-11T21:41:07.357Z,58.97
2022-12-11T21:43:33.790Z,56.53
2022-12-11T21:46:01.693Z,68.63
2022-12-11T21:48:28.960Z,61.92
2022-12-11T21:50:55.531Z,64.77
2022-12-11T21:53:21.979Z,54.85
2022-12-11T21:55:48.373Z,61.25
2022-12-11T21:58:14.778Z,59.13
2022-12-11T22:00:41.224Z,62.25
2022-12-11T22:03:07.739Z,60.70
2022-12-11T22:05:34.164Z,62.83
2022-12-11T22:08:00.679Z,56.60
2022-12-11T22:10:28.486Z,63.03
2022-12-11T22:12:55.119Z,63.05
2022-12-11T22:15:21.592Z,60.57
2022-12-11T22:17:47.998Z,60.67
2022-12-11T22:20:14.604Z,56.35
2022-12-11T22:22:41.080Z,53.13
2022-12-11T22:25:07.909Z,62.88
2022-12-11T22:27:34.891Z,55.57
2022-12-11T22:30:01.332Z,57.70
2022-12-11T22:32:27.800Z,53.50
2022-12-11T22:34:56.273Z,53.72
2022-12-11T22:37:22.755Z,53.72
2022-12-11T22:39:49.399Z,54.50
2022-12-11T22:42:15.915Z,56.00
2022-12-11T22:44:42.346Z,54.83
2022-12-11T22:47:08.776Z,55.08
2022-12-11T22:49:36.081Z,54.03
2022-12-11T22:52:02.632Z,54.30
2022-12-11T22:54:29.013Z,57.35
2022-12-11T22:56:55.473Z,52.33
2022-12-11T22:59:23.189Z,53.55
2022-12-11T23:01:49.588Z,55.55
2022-12-11T23:04:16.000Z,52.47
2022-12-11T23:06:42.458Z,60.67
2022-12-11T23:09:09.030Z,58.25
2022-12-11T23:11:37.341Z,52.35
2022-12-11T23:14:05.416Z,55.63
2022-12-11T23:16:32.148Z,56.33
2022-12-11T23:18:58.821Z,57.13
2022-12-11T23:21:26.879Z,56.55
2022-12-11T23:23:54.346Z,61.00
2022-12-11T23:26:21.670Z,57.08
2022-12-11T23:28:49.158Z,61.23
2022-12-11T23:31:16.845Z,53.75
2022-12-11T23:33:43.287Z,52.40
2022-12-11T23:36:10.250Z,53.17
2022-12-11T23:38:37.505Z,51.95
2022-12-11T23:41:05.099Z,53.80
2022-12-11T23:43:31.938Z,49.72
2022-12-11T23:45:58.429Z,56.38
2022-12-11T23:48:24.851Z,49.55
2022-12-11T23:50:51.395Z,52.53
2022-12-11T23:53:17.815Z,50.20
2022-12-11T23:55:45.319Z,51.25
2022-12-11T23:58:12.561Z,49.80
